Time;durP1;ratioP1;P1;durP2;ratioP2;P2;SDS_P1;SDS_P2;PMS_P1;PMS_P2;Temp;Humidity;BMP_temperature;BMP_pressure;BME280_temperature;BME280_humidity;BME280_pressure;Samples;Min_cycle;Max_cycle;Signal;HPM_P1;HPM_P2
2023/10/20 00:00:20;;;;;;;14.18;8.40;;;7.70;99.90;;;;;;4795670;29;20058;-58
2023/10/20 00:02:46;;;;;;;12.70;8.38;;;7.60;99.90;;;;;;4795041;29;20059;-58
2023/10/20 00:05:13;;;;;;;12.63;8.18;;;7.70;99.90;;;;;;4795946;30;20063;-58
2023/10/20 00:07:40;;;;;;;14.60;8.13;;;7.70;99.90;;;;;;4795437;29;20047;-58
2023/10/20 00:10:09;;;;;;;15.98;8.93;;;7.70;99.90;;;;;;4795575;29;20054;-58
2023/10/20 00:12:35;;;;;;;14.50;8.77;;;7.60;99.90;;;;;;4795635;29;20778;-58
2023/10/20 00:15:01;;;;;;;13.32;8.38;;;7.60;99.90;;;;;;4795221;29;20067;-58
2023/10/20 00:17:27;;;;;;;12.40;8.48;;;7.60;99.90;;;;;;4795374;29;20107;-59
2023/10/20 00:19:53;;;;;;;13.05;8.48;;;7.70;99.90;;;;;;4793812;29;20062;-58
2023/10/20 00:22:19;;;;;;;15.48;9.07;;;7.70;99.90;;;;;;4795371;29;20059;-59
2023/10/20 00:24:45;;;;;;;13.88;8.40;;;7.60;99.90;;;;;;4795003;30;20047;-58
2023/10/20 00:27:13;;;;;;;14.25;8.55;;;7.70;99.90;;;;;;4795041;30;20478;-58
2023/10/20 00:29:40;;;;;;;13.95;8.68;;;7.70;99.90;;;;;;4795372;29;20497;-58
2023/10/20 00:32:07;;;;;;;14.65;8.80;;;7.70;99.90;;;;;;4795057;30;20069;-58
2023/10/20 00:34:32;;;;;;;13.25;8.18;;;7.60;99.90;;;;;;4794838;29;20063;-58
2023/10/20 00:36:58;;;;;;;14.43;8.02;;;7.60;99.90;;;;;;4800196;29;20078;-58
2023/10/20 00:39:24;;;;;;;15.02;8.10;;;7.70;99.90;;;;;;4813386;29;20068;-58
2023/10/20 00:41:50;;;;;;;12.32;7.90;;;7.70;99.90;;;;;;4812608;29;20110;-58
2023/10/20 00:44:15;;;;;;;14.88;8.68;;;7.70;99.90;;;;;;4812932;29;20067;-58
2023/10/20 00:46:45;;;;;;;13.70;8.13;;;7.70;99.90;;;;;;4808143;29;20058;-58
2023/10/20 00:49:12;;;;;;;15.82;8.25;;;7.70;99.90;;;;;;4791942;30;20071;-58
2023/10/20 00:51:43;;;;;;;13.60;8.43;;;7.60;99.90;;;;;;4794695;29;20127;-59
2023/10/20 00:54:13;;;;;;;12.57;7.80;;;7.60;99.90;;;;;;4794725;29;20587;-58
2023/10/20 00:56:42;;;;;;;14.93;8.60;;;7.60;99.90;;;;;;4794683;29;20082;-59
2023/10/20 00:59:09;;;;;;;13.73;7.95;;;7.60;99.90;;;;;;4794850;29;20047;-58
2023/10/20 01:01:35;;;;;;;12.45;7.50;;;7.70;99.90;;;;;;4794554;29;20062;-58
2023/10/20 01:04:01;;;;;;;13.43;7.80;;;7.60;99.90;;;;;;4794926;29;20485;-58
2023/10/20 01:06:28;;;;;;;13.30;7.68;;;7.60;99.90;;;;;;4793080;30;20059;-58
2023/10/20 01:08:55;;;;;;;14.25;8.15;;;7.70;99.90;;;;;;4794264;29;20078;-58
2023/10/20 01:11:21;;;;;;;12.85;8.18;;;7.70;99.90;;;;;;4794329;29;20152;-58
2023/10/20 01:13:46;;;;;;;14.13;8.23;;;7.60;99.90;;;;;;4793823;29;20047;-58
2023/10/20 01:16:12;;;;;;;15.13;8.20;;;7.60;99.90;;;;;;4794269;29;20055;-57
2023/10/20 01:18:38;;;;;;;16.40;9.10;;;7.70;99.90;;;;;;4794191;29;20051;-59
2023/10/20 01:21:04;;;;;;;14.15;8.32;;;7.70;99.90;;;;;;4794822;29;20086;-61
2023/10/20 01:23:30;;;;;;;14.60;9.23;;;7.60;99.90;;;;;;4792209;30;20436;-58
2023/10/20 01:25:56;;;;;;;15.75;9.20;;;7.70;99.90;;;;;;4794255;29;20090;-59
2023/10/20 01:28:22;;;;;;;15.05;10.02;;;7.70;99.90;;;;;;4794051;29;20508;-58
2023/10/20 01:30:48;;;;;;;14.70;8.80;;;7.70;99.90;;;;;;4794500;29;20051;-55
2023/10/20 01:33:14;;;;;;;14.68;9.48;;;7.60;99.90;;;;;;4793908;29;20047;-58
2023/10/20 01:35:40;;;;;;;15.95;9.68;;;7.70;99.90;;;;;;4793676;29;20124;-59
2023/10/20 01:38:05;;;;;;;15.27;9.25;;;7.70;99.90;;;;;;4793538;29;20048;-58
2023/10/20 01:40:31;;;;;;;18.67;9.77;;;7.70;99.90;;;;;;4793732;29;20448;-58
2023/10/20 01:42:57;;;;;;;16.67;10.15;;;7.70;99.90;;;;;;4793959;29;20353;-58
2023/10/20 01:45:23;;;;;;;19.45;11.43;;;7.60;99.90;;;;;;4793514;29;20043;-58
2023/10/20 01:47:49;;;;;;;17.33;10.98;;;7.60;99.90;;;;;;4794001;29;20047;-58
2023/10/20 01:50:15;;;;;;;17.75;11.15;;;7.50;99.90;;;;;;4792481;29;20124;-58
2023/10/20 01:52:42;;;;;;;17.60;10.57;;;7.60;99.90;;;;;;4793711;29;20039;-58
2023/10/20 01:55:09;;;;;;;18.88;11.20;;;7.70;99.90;;;;;;4793789;29;20058;-59
2023/10/20 01:57:35;;;;;;;20.35;11.15;;;7.70;99.90;;;;;;4793366;29;20047;-58
2023/10/20 02:00:03;;;;;;;23.02;13.48;;;7.60;99.90;;;;;;4793805;29;20051;-59
2023/10/20 02:02:28;;;;;;;20.98;12.57;;;7.70;99.90;;;;;;4793561;29;20063;-58
2023/10/20 02:04:54;;;;;;;22.48;12.00;;;7.60;99.90;;;;;;4793791;29;20047;-58
2023/10/20 02:07:20;;;;;;;21.77;12.15;;;7.70;99.90;;;;;;4792976;29;20043;-58
2023/10/20 02:09:45;;;;;;;22.38;13.35;;;7.60;99.90;;;;;;4793703;29;20050;-58
2023/10/20 02:12:13;;;;;;;24.30;13.82;;;7.70;99.90;;;;;;4793871;29;20047;-59
2023/10/20 02:14:39;;;;;;;21.52;12.90;;;7.70;99.90;;;;;;4792711;29;20113;-58
2023/10/20 02:17:05;;;;;;;25.00;13.55;;;7.70;99.90;;;;;;4793314;29;20118;-58
2023/10/20 02:19:31;;;;;;;20.20;12.80;;;7.60;99.90;;;;;;4792551;30;20135;-59
2023/10/20 02:21:59;;;;;;;21.95;13.18;;;7.60;99.90;;;;;;4792928;29;20039;-58
2023/10/20 02:24:25;;;;;;;21.85;13.35;;;7.60;99.90;;;;;;4792745;29;20051;-58
2023/10/20 02:26:51;;;;;;;23.30;13.63;;;7.60;99.90;;;;;;4793439;29;20051;-58
2023/10/20 02:29:17;;;;;;;23.25;12.75;;;7.70;99.90;;;;;;4793057;29;20130;-58
2023/10/20 02:31:43;;;;;;;23.55;14.45;;;7.60;99.90;;;;;;4793116;29;20510;-58
2023/10/20 02:34:09;;;;;;;23.85;14.45;;;7.50;99.90;;;;;;4793029;29;20059;-58
2023/10/20 02:36:35;;;;;;;24.90;14.15;;;7.60;99.90;;;;;;4793013;29;20059;-58
2023/10/20 02:39:01;;;;;;;24.23;13.60;;;7.60;99.90;;;;;;4793164;29;20135;-58
2023/10/20 02:41:28;;;;;;;27.80;14.98;;;7.60;99.90;;;;;;4792660;29;20055;-58
2023/10/20 02:43:54;;;;;;;25.38;15.32;;;7.60;99.90;;;;;;4793115;29;20055;-58
2023/10/20 02:46:20;;;;;;;25.92;15.10;;;7.60;99.90;;;;;;4793282;29;20075;-58
2023/10/20 02:48:45;;;;;;;26.73;14.68;;;7.60;99.90;;;;;;4793024;30;20062;-58
2023/10/20 02:51:15;;;;;;;26.25;15.98;;;7.50;99.90;;;;;;4793123;30;20058;-58
2023/10/20 02:53:41;;;;;;;25.20;14.88;;;7.50;99.90;;;;;;4793004;29;20170;-58
2023/10/20 02:56:15;;;;;;;28.38;14.80;;;7.60;99.90;;;;;;4792943;29;20660;-59
2023/10/20 02:58:44;;;;;;;27.10;15.95;;;7.60;99.90;;;;;;4793103;29;20059;-58
2023/10/20 03:01:14;;;;;;;29.30;16.20;;;7.60;99.90;;;;;;4793376;29;20073;-58
2023/10/20 03:03:40;;;;;;;29.48;16.73;;;7.50;99.90;;;;;;4793106;29;20047;-58
2023/10/20 03:06:09;;;;;;;26.17;15.85;;;7.50;99.90;;;;;;4792967;29;20051;-58
2023/10/20 03:08:37;;;;;;;27.13;14.88;;;7.50;99.90;;;;;;4792960;29;20103;-59
2023/10/20 03:11:04;;;;;;;26.70;15.40;;;7.50;99.90;;;;;;4793014;29;20697;-59
2023/10/20 03:13:30;;;;;;;27.27;15.70;;;7.40;99.90;;;;;;4791791;30;20126;-58
2023/10/20 03:15:56;;;;;;;25.83;15.80;;;7.50;99.90;;;;;;4792679;29;20043;-58
2023/10/20 03:18:23;;;;;;;29.73;16.00;;;7.50;99.90;;;;;;4792986;29;20134;-58
2023/10/20 03:20:49;;;;;;;27.10;16.02;;;7.40;99.90;;;;;;4793264;29;20043;-58
2023/10/20 03:23:15;;;;;;;27.30;17.13;;;7.50;99.90;;;;;;4792694;29;20412;-58
2023/10/20 03:25:42;;;;;;;26.95;16.10;;;7.40;99.90;;;;;;4792765;29;20053;-58
2023/10/20 03:28:08;;;;;;;27.90;15.65;;;7.40;99.90;;;;;;4792400;29;20058;-58
2023/10/20 03:30:38;;;;;;;27.00;15.73;;;7.30;99.90;;;;;;4792610;30;20047;-58
2023/10/20 03:33:06;;;;;;;26.23;14.82;;;7.40;99.90;;;;;;4792858;29;20054;-58
2023/10/20 03:35:31;;;;;;;28.85;16.25;;;7.30;99.90;;;;;;4792375;29;20109;-59
2023/10/20 03:37:58;;;;;;;31.25;16.85;;;7.40;99.90;;;;;;4795834;29;20072;-58
2023/10/20 03:40:30;;;;;;;27.83;15.40;;;7.30;99.90;;;;;;4795087;29;20055;-60
2023/10/20 03:42:58;;;;;;;26.70;14.75;;;7.30;99.90;;;;;;4796020;29;20447;-58
2023/10/20 03:45:24;;;;;;;25.10;15.50;;;7.40;99.90;;;;;;4795585;29;20071;-58
2023/10/20 03:47:51;;;;;;;28.70;15.70;;;7.30;99.90;;;;;;4794745;30;20579;-58
2023/10/20 03:50:16;;;;;;;26.55;15.63;;;7.40;99.90;;;;;;4795846;29;20093;-58
2023/10/20 03:52:46;;;;;;;23.52;15.18;;;7.30;99.90;;;;;;4795887;29;20051;-57
2023/10/20 03:55:15;;;;;;;27.17;15.15;;;7.40;99.90;;;;;;4795792;29;20059;-58
2023/10/20 03:57:43;;;;;;;28.85;17.23;;;7.30;99.90;;;;;;4795225;30;20051;-58
2023/10/20 04:00:28;;;;;;;27.10;14.38;;;7.40;99.90;;;;;;4795796;29;20043;-59
2023/10/20 04:02:54;;;;;;;23.27;14.00;;;7.30;99.90;;;;;;4795220;29;20059;-59
2023/10/20 04:05:21;;;;;;;25.08;13.93;;;7.40;99.90;;;;;;4795775;29;20051;-59
2023/10/20 04:07:47;;;;;;;21.10;13.95;;;7.30;99.90;;;;;;4795717;29;20055;-57
2023/10/20 04:10:12;;;;;;;20.35;13.05;;;7.50;99.90;;;;;;4794923;29;20099;-59
2023/10/20 04:12:42;;;;;;;21.55;12.82;;;7.40;99.90;;;;;;4795692;29;20050;-59
2023/10/20 04:15:14;;;;;;;21.35;12.45;;;7.50;99.90;;;;;;4795113;29;20062;-59
2023/10/20 04:17:44;;;;;;;21.08;12.75;;;7.40;99.90;;;;;;4795221;29;20428;-59
2023/10/20 04:20:15;;;;;;;20.95;13.07;;;7.50;99.90;;;;;;4793801;30;20039;-57
2023/10/20 04:22:49;;;;;;;20.75;12.35;;;7.40;99.90;;;;;;4794739;29;20047;-59
2023/10/20 04:25:16;;;;;;;19.17;12.77;;;7.50;99.90;;;;;;4795370;29;20050;-58
2023/10/20 04:57:49;;;;;;;15.75;9.75;;;7.50;99.90;;;;;;4794590;29;20048;-58
2023/10/20 05:10:39;;;;;;;12.70;8.48;;;7.60;99.90;;;;;;4794086;30;20070;-58
2023/10/20 05:13:05;;;;;;;14.07;8.55;;;7.50;99.90;;;;;;4794567;29;20055;-59
2023/10/20 05:15:38;;;;;;;13.85;9.18;;;7.50;99.90;;;;;;4794060;30;20057;-58
2023/10/20 05:18:05;;;;;;;14.85;8.50;;;7.50;99.90;;;;;;4794515;29;20051;-59
2023/10/20 05:20:34;;;;;;;12.25;8.10;;;7.50;99.90;;;;;;4793939;29;20128;-58
2023/10/20 05:23:00;;;;;;;12.30;8.00;;;7.50;99.90;;;;;;4790811;29;20051;-58
2023/10/20 05:25:26;;;;;;;11.77;7.85;;;7.50;99.90;;;;;;4790578;29;20132;-58
2023/10/20 05:27:52;;;;;;;13.90;7.93;;;7.50;99.90;;;;;;4790420;29;20051;-58
2023/10/20 05:30:17;;;;;;;11.88;7.25;;;7.50;99.90;;;;;;4790621;29;20129;-58
2023/10/20 05:32:43;;;;;;;11.63;7.00;;;7.50;99.90;;;;;;4790400;29;20043;-58
2023/10/20 05:35:09;;;;;;;12.70;6.90;;;7.50;99.90;;;;;;4788965;30;20067;-58
2023/10/20 05:37:35;;;;;;;11.02;6.78;;;7.50;99.90;;;;;;4789908;29;20058;-55
2023/10/20 05:40:01;;;;;;;12.40;7.28;;;7.50;99.90;;;;;;4789775;29;20051;-58
2023/10/20 05:42:27;;;;;;;11.93;6.50;;;7.60;99.90;;;;;;4790443;30;20542;-58
2023/10/20 05:45:29;;;;;;;9.18;5.72;;;7.60;99.90;;;;;;4790482;29;20061;-58
2023/10/20 05:47:45;;;;;;;10.40;6.20;;;7.60;99.90;;;;;;4790559;29;20500;-58
2023/10/20 05:50:11;;;;;;;10.43;5.90;;;7.60;99.90;;;;;;4789807;30;20054;-58
2023/10/20 05:52:39;;;;;;;9.73;5.95;;;7.60;99.90;;;;;;4790087;29;20081;-58
2023/10/20 05:55:05;;;;;;;12.20;6.35;;;7.60;99.90;;;;;;4790021;29;20507;-58
2023/10/20 05:57:31;;;;;;;10.93;5.88;;;7.50;99.90;;;;;;4790031;29;20051;-58
2023/10/20 05:59:59;;;;;;;10.15;5.60;;;7.60;99.90;;;;;;4789027;29;20579;-58
2023/10/20 06:02:26;;;;;;;10.07;5.70;;;7.60;99.90;;;;;;4789370;30;20035;-58
2023/10/20 06:04:51;;;;;;;9.70;5.53;;;7.70;99.90;;;;;;4789506;29;20540;-58
2023/10/20 06:07:17;;;;;;;10.98;5.25;;;7.60;99.90;;;;;;4789491;29;20136;-58
2023/10/20 06:09:43;;;;;;;9.30;5.00;;;7.50;99.90;;;;;;4789965;30;20126;-58
2023/10/20 06:12:10;;;;;;;10.40;5.38;;;7.60;99.90;;;;;;4788576;30;20050;-58
2023/10/20 06:14:36;;;;;;;9.02;4.45;;;7.60;99.90;;;;;;4789699;30;20071;-58
2023/10/20 06:17:02;;;;;;;6.95;3.78;;;7.60;99.90;;;;;;4788477;30;20171;-58
2023/10/20 06:19:28;;;;;;;6.93;3.78;;;7.60;99.90;;;;;;4789291;30;20058;-58
2023/10/20 06:21:55;;;;;;;7.50;3.67;;;7.60;99.90;;;;;;4789339;29;20065;-58
2023/10/20 06:24:21;;;;;;;7.55;4.00;;;7.50;99.90;;;;;;4789346;29;20543;-58
2023/10/20 06:26:47;;;;;;;6.30;2.97;;;7.50;99.90;;;;;;4789117;29;20516;-58
2023/10/20 06:29:27;;;;;;;7.63;3.50;;;7.50;99.90;;;;;;4789989;29;20090;-59
2023/10/20 06:31:58;;;;;;;7.80;3.47;;;7.60;99.90;;;;;;4771335;30;20134;-58
2023/10/20 06:34:24;;;;;;;8.70;3.75;;;7.50;99.90;;;;;;4785991;30;20071;-58
2023/10/20 06:36:59;;;;;;;8.93;4.28;;;7.50;99.90;;;;;;4789506;29;20073;-58
2023/10/20 06:39:26;;;;;;;8.50;4.05;;;7.50;99.90;;;;;;4789932;29;20281;-59
2023/10/20 06:41:52;;;;;;;7.47;4.10;;;7.50;99.90;;;;;;4789445;29;20055;-58
2023/10/20 06:44:18;;;;;;;6.80;3.80;;;7.50;99.90;;;;;;4789305;29;20109;-59
2023/10/20 06:46:44;;;;;;;7.65;4.10;;;7.50;99.90;;;;;;4788966;29;20142;-58
2023/10/20 06:49:09;;;;;;;7.90;4.30;;;7.40;99.90;;;;;;4804500;29;20043;-58
2023/10/20 06:51:37;;;;;;;8.90;3.83;;;7.50;99.90;;;;;;4807232;29;20493;-58
2023/10/20 06:54:02;;;;;;;8.55;4.20;;;7.50;99.90;;;;;;4801184;29;20163;-59
2023/10/20 06:56:28;;;;;;;7.63;3.75;;;7.50;99.90;;;;;;4789403;29;20051;-58
2023/10/20 06:58:54;;;;;;;8.30;4.10;;;7.40;99.90;;;;;;4788769;30;20043;-59
2023/10/20 07:01:20;;;;;;;8.55;4.10;;;7.40;99.90;;;;;;4788721;29;20059;-58
2023/10/20 07:03:46;;;;;;;7.47;3.55;;;7.40;99.90;;;;;;4789195;29;20148;-59
2023/10/20 07:06:12;;;;;;;7.57;3.95;;;7.40;99.90;;;;;;4788919;30;20059;-58
2023/10/20 07:08:38;;;;;;;9.38;3.83;;;7.40;99.90;;;;;;4789304;29;20063;-58
2023/10/20 07:11:04;;;;;;;8.05;4.10;;;7.40;99.90;;;;;;4789675;29;20042;-59
2023/10/20 07:13:33;;;;;;;7.60;4.00;;;7.40;99.90;;;;;;4792498;29;20281;-58
2023/10/20 07:16:00;;;;;;;8.40;3.63;;;7.40;99.90;;;;;;4792240;29;20109;-58
2023/10/20 07:18:26;;;;;;;8.00;3.72;;;7.30;99.90;;;;;;4790995;30;20516;-59
2023/10/20 07:20:52;;;;;;;7.72;3.72;;;7.40;99.90;;;;;;4793035;29;20055;-59
2023/10/20 07:23:18;;;;;;;6.53;3.30;;;7.30;99.90;;;;;;4790517;30;20167;-59
2023/10/20 07:25:44;;;;;;;7.35;3.33;;;7.40;99.90;;;;;;4792373;29;20059;-59
2023/10/20 07:28:10;;;;;;;7.38;3.08;;;7.40;99.90;;;;;;4791628;29;20050;-59
2023/10/20 07:30:36;;;;;;;7.13;3.70;;;7.30;99.90;;;;;;4792638;29;20051;-59
2023/10/20 07:33:05;;;;;;;6.07;3.03;;;7.30;99.90;;;;;;4792414;29;20503;-58
2023/10/20 07:35:32;;;;;;;7.10;3.42;;;7.30;99.90;;;;;;4791640;29;20067;-59
2023/10/20 07:37:58;;;;;;;6.50;3.05;;;7.30;99.90;;;;;;4792677;29;20087;-59
2023/10/20 07:40:26;;;;;;;7.10;2.85;;;7.30;99.90;;;;;;4790537;30;20108;-59
2023/10/20 07:42:53;;;;;;;6.60;3.40;;;7.30;99.90;;;;;;4791991;29;20055;-59
2023/10/20 07:45:18;;;;;;;7.03;3.35;;;7.30;99.90;;;;;;4792215;29;20052;-59
2023/10/20 07:47:44;;;;;;;7.97;3.42;;;7.30;99.90;;;;;;4791997;29;20565;-58
2023/10/20 07:50:10;;;;;;;5.72;2.97;;;7.30;99.90;;;;;;4792140;29;20086;-58
2023/10/20 07:52:36;;;;;;;7.07;3.35;;;7.30;99.90;;;;;;4790952;29;20115;-58
2023/10/20 07:55:02;;;;;;;8.45;3.45;;;7.30;99.90;;;;;;4791164;29;20507;-58
2023/10/20 07:57:28;;;;;;;6.13;3.20;;;7.30;99.90;;;;;;4790104;29;20063;-58
2023/10/20 07:59:54;;;;;;;6.75;3.28;;;7.20;99.90;;;;;;4791038;29;20070;-59
2023/10/20 08:02:20;;;;;;;7.50;3.47;;;7.20;99.90;;;;;;4791394;29;20097;-58
2023/10/20 08:04:46;;;;;;;7.40;3.60;;;7.20;99.90;;;;;;4790370;29;20047;-59
2023/10/20 08:07:11;;;;;;;7.32;3.63;;;7.20;99.90;;;;;;4791231;29;20147;-58
2023/10/20 08:09:37;;;;;;;6.75;3.20;;;7.10;99.90;;;;;;4790672;29;20055;-59
2023/10/20 08:12:03;;;;;;;7.47;3.33;;;7.10;99.90;;;;;;4791064;29;20039;-59
2023/10/20 08:14:30;;;;;;;8.13;3.10;;;7.10;99.90;;;;;;4790562;29;20051;-59
2023/10/20 08:16:56;;;;;;;7.97;3.58;;;7.10;99.90;;;;;;4790764;29;20055;-58
2023/10/20 08:19:21;;;;;;;7.22;3.78;;;7.10;99.90;;;;;;4790516;29;20514;-58
2023/10/20 08:21:47;;;;;;;8.38;3.35;;;7.10;99.90;;;;;;4790899;29;20051;-59
2023/10/20 08:24:14;;;;;;;7.00;2.95;;;7.10;99.90;;;;;;4790095;30;20051;-59
2023/10/20 08:26:39;;;;;;;7.07;3.28;;;7.10;99.90;;;;;;4791015;29;20051;-58
2023/10/20 08:29:12;;;;;;;7.00;3.33;;;7.10;99.90;;;;;;4790597;29;20122;-58
2023/10/20 08:31:39;;;;;;;8.55;3.63;;;7.10;99.90;;;;;;4787816;29;20055;-61
2023/10/20 08:34:05;;;;;;;6.35;2.88;;;7.10;99.90;;;;;;4777607;29;20070;-59
2023/10/20 08:36:31;;;;;;;7.47;3.00;;;7.10;99.90;;;;;;4779936;29;20052;-59
2023/10/20 08:39:01;;;;;;;7.97;3.20;;;7.00;99.90;;;;;;4779769;29;20047;-59
2023/10/20 08:41:27;;;;;;;5.28;2.58;;;7.10;99.90;;;;;;4779794;29;20059;-60
2023/10/20 08:43:55;;;;;;;6.53;2.63;;;7.00;99.90;;;;;;4781263;29;20051;-60
2023/10/20 08:46:24;;;;;;;7.82;2.30;;;7.10;99.90;;;;;;4781211;29;20055;-59
2023/10/20 08:48:52;;;;;;;6.45;2.50;;;7.10;99.90;;;;;;4779392;29;20063;-60
2023/10/20 08:51:18;;;;;;;6.72;2.38;;;7.10;99.90;;;;;;4780908;29;20062;-61
2023/10/20 08:53:45;;;;;;;5.95;2.42;;;7.00;99.90;;;;;;4781202;29;20661;-60
2023/10/20 08:56:12;;;;;;;7.22;2.22;;;7.00;99.90;;;;;;4779522;29;20082;-61
2023/10/20 08:58:38;;;;;;;5.93;2.10;;;7.10;99.90;;;;;;4780769;29;20053;-62
2023/10/20 09:01:05;;;;;;;5.75;2.38;;;7.00;99.90;;;;;;4780977;29;20133;-65
2023/10/20 09:04:00;;;;;;;5.20;2.08;;;7.00;99.90;;;;;;4781285;29;20055;-62
2023/10/20 09:06:27;;;;;;;5.95;2.17;;;7.00;99.90;;;;;;4780212;29;20073;-63
2023/10/20 09:08:53;;;;;;;5.43;2.53;;;7.00;99.90;;;;;;4781230;29;20048;-62
2023/10/20 09:11:19;;;;;;;6.70;2.35;;;7.00;99.90;;;;;;4778588;29;20369;-62
2023/10/20 09:13:46;;;;;;;5.65;2.47;;;7.10;99.90;;;;;;4779669;29;20562;-62
2023/10/20 09:16:13;;;;;;;6.22;2.92;;;7.00;99.90;;;;;;4779558;29;20058;-63
2023/10/20 09:18:44;;;;;;;4.88;2.20;;;7.00;99.90;;;;;;4778879;29;20050;-63
2023/10/20 09:21:13;;;;;;;5.95;2.42;;;7.10;99.90;;;;;;4778909;29;20134;-63
2023/10/20 09:23:39;;;;;;;6.07;2.13;;;7.00;99.90;;;;;;4778592;29;20050;-63
2023/10/20 09:26:05;;;;;;;6.18;2.15;;;7.10;99.90;;;;;;4778817;29;20063;-63
2023/10/20 09:28:32;;;;;;;5.47;2.10;;;7.00;99.90;;;;;;4779252;29;20047;-64
2023/10/20 09:30:59;;;;;;;5.35;1.70;;;7.00;99.90;;;;;;4778860;29;20100;-64
2023/10/20 09:33:25;;;;;;;5.32;2.00;;;7.00;99.90;;;;;;4777508;29;20939;-63
2023/10/20 09:35:54;;;;;;;5.00;2.25;;;6.90;99.90;;;;;;4777540;29;20094;-63
2023/10/20 09:38:25;;;;;;;4.78;2.08;;;6.90;99.90;;;;;;4778868;29;20088;-63
2023/10/20 09:41:02;;;;;;;4.22;1.60;;;7.00;99.90;;;;;;4778822;29;20118;-63
2023/10/20 09:43:31;;;;;;;7.05;1.88;;;6.90;99.90;;;;;;4779000;29;20060;-63
2023/10/20 09:46:07;;;;;;;6.82;1.60;;;6.90;99.90;;;;;;4778987;29;21448;-63
2023/10/20 09:48:36;;;;;;;5.88;2.13;;;7.00;99.90;;;;;;4777555;29;20547;-62
2023/10/20 09:51:04;;;;;;;4.95;1.85;;;7.00;99.90;;;;;;4778584;29;20098;-63
2023/10/20 09:53:30;;;;;;;4.32;1.80;;;7.00;99.90;;;;;;4778118;29;20051;-63
2023/10/20 09:55:56;;;;;;;5.28;1.73;;;6.90;99.90;;;;;;4776796;29;20097;-63
2023/10/20 09:58:33;;;;;;;4.07;1.70;;;6.90;99.90;;;;;;4778133;29;20047;-63
2023/10/20 10:00:59;;;;;;;6.45;2.20;;;6.80;99.90;;;;;;4778563;29;20070;-63
2023/10/20 10:03:40;;;;;;;4.95;1.95;;;6.90;99.90;;;;;;4778831;29;20055;-62
2023/10/20 10:06:12;;;;;;;4.45;1.60;;;6.90;99.90;;;;;;4778168;29;20625;-63
2023/10/20 10:08:39;;;;;;;;;;;6.90;99.90;;;;;;4779161;29;20138;-62
2023/10/20 10:11:19;;;;;;;3.88;1.30;;;6.90;99.90;;;;;;4778089;29;20016;-62
2023/10/20 10:13:45;;;;;;;2.60;1.10;;;6.90;99.90;;;;;;4777350;29;20425;-62
2023/10/20 10:16:14;;;;;;;3.63;1.30;;;6.80;99.90;;;;;;4778892;29;20046;-61
2023/10/20 10:18:45;;;;;;;4.38;1.30;;;6.80;99.90;;;;;;4778227;29;20047;-61
2023/10/20 10:21:26;;;;;;;3.83;1.58;;;6.90;99.90;;;;;;4778544;29;20078;-61
2023/10/20 10:24:11;;;;;;;5.00;1.50;;;6.80;99.90;;;;;;4777413;29;20051;-61
2023/10/20 10:26:54;;;;;;;4.60;1.60;;;6.80;99.90;;;;;;4777807;29;20111;-61
2023/10/20 10:29:22;;;;;;;;;;;6.80;99.90;;;;;;4778866;29;20047;-62
2023/10/20 10:31:48;;;;;;;3.92;1.45;;;6.80;99.90;;;;;;4777568;29;19929;-62
2023/10/20 10:34:14;;;;;;;4.70;1.63;;;6.80;99.90;;;;;;4777663;29;20104;-62
2023/10/20 10:36:47;;;;;;;4.03;1.42;;;6.90;99.90;;;;;;4777315;29;20066;-62
2023/10/20 10:39:29;;;;;;;5.20;1.60;;;6.80;99.90;;;;;;4776709;29;20122;-62
2023/10/20 10:42:01;;;;;;;4.30;1.30;;;6.80;99.90;;;;;;4778605;29;20074;-62
2023/10/20 10:44:33;;;;;;;4.68;1.45;;;6.80;99.90;;;;;;4777488;29;20048;-62
2023/10/20 10:46:59;;;;;;;4.13;1.37;;;6.80;99.90;;;;;;4780141;29;20062;-63
2023/10/20 10:49:24;;;;;;;4.25;1.40;;;6.80;99.90;;;;;;4781950;29;20699;-63
2023/10/20 10:51:52;;;;;;;3.83;1.25;;;6.70;99.90;;;;;;4781196;29;20073;-63
2023/10/20 10:54:18;;;;;;;3.90;1.30;;;6.70;99.90;;;;;;4781948;29;20059;-63
2023/10/20 10:56:45;;;;;;;4.22;1.10;;;6.70;99.90;;;;;;4781146;29;20047;-63
2023/10/20 10:59:11;;;;;;;2.63;0.95;;;6.70;99.90;;;;;;4780790;29;20043;-63
2023/10/20 11:01:41;;;;;;;3.20;1.20;;;6.70;99.90;;;;;;4780937;29;20070;-63
2023/10/20 11:04:10;;;;;;;3.47;1.23;;;6.80;99.90;;;;;;4781399;29;20047;-64
2023/10/20 11:06:39;;;;;;;4.28;1.40;;;6.80;99.90;;;;;;4782203;29;20055;-64
2023/10/20 11:09:13;;;;;;;3.97;1.25;;;6.70;99.90;;;;;;4784297;29;20054;-63
2023/10/20 11:11:45;;;;;;;3.92;1.75;;;6.70;99.90;;;;;;4782824;29;20051;-65
2023/10/20 11:14:23;;;;;;;3.22;1.30;;;6.70;99.90;;;;;;4783652;29;20070;-65
2023/10/20 11:16:49;;;;;;;3.85;1.42;;;6.70;99.90;;;;;;4783861;29;20210;-68
2023/10/20 11:19:15;;;;;;;3.60;1.42;;;6.60;99.90;;;;;;4784309;29;20051;-70
2023/10/20 11:21:47;;;;;;;3.80;1.30;;;6.70;99.90;;;;;;4784580;29;20063;-69
2023/10/20 11:24:35;;;;;;;3.25;1.48;;;6.70;99.90;;;;;;4783870;29;20092;-70
2023/10/20 11:27:02;;;;;;;3.67;1.10;;;6.60;99.90;;;;;;4783644;29;20062;-68
2023/10/20 11:29:30;;;;;;;3.80;1.10;;;6.60;99.90;;;;;;4783979;29;20106;-66
2023/10/20 11:31:57;;;;;;;2.25;0.90;;;6.70;99.90;;;;;;4783244;29;20051;-68
2023/10/20 11:34:25;;;;;;;2.35;0.80;;;6.60;99.90;;;;;;4782294;29;20151;-66
2023/10/20 11:36:51;;;;;;;2.92;1.10;;;6.60;99.90;;;;;;4783455;29;20051;-67
2023/10/20 11:39:17;;;;;;;3.00;1.00;;;6.70;99.90;;;;;;4784214;29;20047;-67
2023/10/20 11:41:44;;;;;;;2.95;0.80;;;6.60;99.90;;;;;;4784560;29;20055;-67
2023/10/20 11:44:09;;;;;;;3.05;1.02;;;6.60;99.90;;;;;;4783791;29;20062;-67
2023/10/20 11:46:35;;;;;;;3.20;1.00;;;6.60;99.90;;;;;;4783187;29;20039;-67
2023/10/20 11:49:01;;;;;;;2.65;0.98;;;6.50;99.90;;;;;;4782516;29;20043;-66
2023/10/20 11:51:26;;;;;;;2.78;1.08;;;6.60;99.90;;;;;;4794966;29;20047;-64
2023/10/20 11:53:52;;;;;;;2.53;1.00;;;6.60;99.90;;;;;;4794600;29;20075;-64
2023/10/20 11:56:18;;;;;;;2.70;1.10;;;6.60;99.90;;;;;;4793144;29;20105;-64
2023/10/20 11:58:44;;;;;;;3.20;1.10;;;6.50;99.90;;;;;;4794037;29;20083;-65
2023/10/20 12:01:11;;;;;;;3.22;1.10;;;6.60;99.90;;;;;;4794594;29;20055;-65
2023/10/20 12:03:36;;;;;;;2.97;1.20;;;6.60;99.90;;;;;;4794550;29;20070;-65
2023/10/20 12:06:02;;;;;;;2.90;1.08;;;6.60;99.90;;;;;;4791571;29;20094;-64
2023/10/20 12:08:29;;;;;;;4.03;1.55;;;6.60;99.90;;;;;;4791674;29;20054;-65
2023/10/20 12:10:56;;;;;;;2.88;1.27;;;6.70;99.90;;;;;;4794113;29;20091;-65
2023/10/20 12:13:23;;;;;;;2.80;1.10;;;6.60;99.90;;;;;;4794395;29;20047;-64
2023/10/20 12:15:49;;;;;;;3.20;1.20;;;6.60;99.90;;;;;;4795268;29;20051;-64
2023/10/20 12:18:15;;;;;;;2.85;1.20;;;6.60;99.90;;;;;;4795098;29;20398;-63
2023/10/20 12:20:41;;;;;;;3.88;1.30;;;6.60;99.90;;;;;;4795473;29;20448;-64
2023/10/20 12:23:07;;;;;;;2.85;1.00;;;6.70;99.90;;;;;;4794794;29;20074;-64
2023/10/20 12:25:33;;;;;;;3.20;1.10;;;6.60;99.90;;;;;;4795007;29;20059;-65
2023/10/20 12:28:00;;;;;;;3.70;1.05;;;6.70;99.90;;;;;;4794386;29;20066;-64
2023/10/20 12:30:26;;;;;;;2.88;1.20;;;6.60;99.90;;;;;;4794342;29;20813;-65
2023/10/20 12:32:52;;;;;;;2.42;0.90;;;6.50;99.90;;;;;;4794644;29;20549;-65
2023/10/20 12:35:18;;;;;;;3.92;1.20;;;6.70;99.90;;;;;;4794934;29;20059;-65
2023/10/20 12:37:45;;;;;;;4.13;1.33;;;6.60;99.90;;;;;;4794872;29;20098;-65
2023/10/20 12:40:13;;;;;;;2.67;1.08;;;6.50;99.90;;;;;;4794502;29;20059;-65
2023/10/20 12:42:40;;;;;;;2.53;1.00;;;6.60;99.90;;;;;;4794485;29;20055;-65
2023/10/20 12:45:09;;;;;;;4.35;1.25;;;6.70;99.90;;;;;;4794498;29;20054;-65
2023/10/20 12:47:35;;;;;;;5.15;1.52;;;6.60;99.90;;;;;;4795043;29;20124;-64
2023/10/20 12:50:01;;;;;;;5.28;1.30;;;6.50;99.90;;;;;;4794679;29;20047;-63
2023/10/20 12:52:27;;;;;;;5.82;2.80;;;6.60;99.90;;;;;;4794065;29;20054;-63
2023/10/20 12:54:52;;;;;;;2.65;1.10;;;6.70;99.90;;;;;;4793717;29;20063;-63
2023/10/20 12:57:19;;;;;;;4.10;1.70;;;6.70;99.90;;;;;;4793237;30;20138;-63
2023/10/20 12:59:45;;;;;;;3.05;1.20;;;6.70;99.90;;;;;;4793913;29;20050;-63
2023/10/20 13:02:10;;;;;;;3.05;1.10;;;6.60;99.90;;;;;;4793432;29;20051;-63
2023/10/20 13:04:36;;;;;;;2.60;1.00;;;6.50;99.90;;;;;;4794495;29;20047;-62
2023/10/20 13:07:02;;;;;;;3.72;1.40;;;6.60;99.90;;;;;;4793408;30;20600;-63
2023/10/20 13:09:28;;;;;;;4.40;1.48;;;6.60;99.90;;;;;;4792739;29;20100;-64
2023/10/20 13:11:56;;;;;;;4.28;1.58;;;6.50;99.90;;;;;;4793861;29;20079;-66
2023/10/20 13:14:23;;;;;;;3.35;1.20;;;6.60;99.90;;;;;;4793745;29;20074;-64
2023/10/20 13:16:48;;;;;;;3.10;1.25;;;6.50;99.90;;;;;;4794015;29;20075;-64
2023/10/20 13:19:15;;;;;;;3.50;1.20;;;6.60;99.90;;;;;;4793794;29;20055;-65
2023/10/20 13:21:41;;;;;;;3.35;1.08;;;6.50;99.90;;;;;;4794228;29;20904;-63
2023/10/20 13:24:07;;;;;;;3.17;1.20;;;6.60;99.90;;;;;;4792957;29;20093;-63
2023/10/20 13:26:33;;;;;;;3.22;1.05;;;6.50;99.90;;;;;;4793221;29;20059;-60
2023/10/20 13:28:59;;;;;;;2.58;0.95;;;6.50;99.90;;;;;;4792578;29;20063;-62
2023/10/20 13:31:26;;;;;;;2.10;1.00;;;6.50;99.90;;;;;;4793069;30;20081;-62